sensor_id;sensor_type;location;lat;lon;timestamp;pressure;altitude;pressure_sealevel;temperature;humidity
10006;BME280;5042;42.626;23.382;2023-11-21T00:00:45;150297.06;;;4.78;100.00
10006;BME280;5042;42.626;23.382;2023-11-21T00:03:12;150316.41;;;4.86;100.00
10006;BME280;5042;42.626;23.382;2023-11-21T00:05:40;150342.25;;;4.96;100.00
10006;BME280;5042;42.626;23.382;2023-11-21T00:08:08;150267.34;;;4.66;100.00
10006;BME280;5042;42.626;23.382;2023-11-21T00:10:35;150371.97;;;5.08;100.00
10006;BME280;5042;42.626;23.382;2023-11-21T00:13:19;150390.03;;;5.15;100.00
10006;BME280;5042;42.626;23.382;2023-11-21T00:15:48;150352.56;;;5.00;100.00
10006;BME280;5042;42.626;23.382;2023-11-21T00:18:14;150375.81;;;5.09;100.00
10006;BME280;5042;42.626;23.382;2023-11-21T00:20:42;150388.72;;;5.15;100.00
10006;BME280;5042;42.626;23.382;2023-11-21T00:23:08;150418.41;;;5.26;100.00
10006;BME280;5042;42.626;23.382;2023-11-21T00:25:35;150414.56;;;5.25;100.00
10006;BME280;5042;42.626;23.382;2023-11-21T00:28:02;150400.34;;;5.19;100.00
10006;BME280;5042;42.626;23.382;2023-11-21T00:30:30;150401.66;;;5.20;100.00
10006;BME280;5042;42.626;23.382;2023-11-21T00:32:58;150426.19;;;5.29;100.00
10006;BME280;5042;42.626;23.382;2023-11-21T00:35:25;150432.66;;;5.32;100.00
10006;BME280;5042;42.626;23.382;2023-11-21T00:37:52;150437.84;;;5.34;100.00
10006;BME280;5042;42.626;23.382;2023-11-21T00:40:19;150431.38;;;5.31;100.00
10006;BME280;5042;42.626;23.382;2023-11-21T00:42:46;150397.78;;;5.18;100.00
10006;BME280;5042;42.626;23.382;2023-11-21T00:45:13;150375.81;;;5.09;100.00
10006;BME280;5042;42.626;23.382;2023-11-21T00:47:40;150339.66;;;4.95;100.00
10006;BME280;5042;42.626;23.382;2023-11-21T00:50:09;150302.22;;;4.80;100.00
10006;BME280;5042;42.626;23.382;2023-11-21T00:52:36;150330.63;;;4.92;100.00
10006;BME280;5042;42.626;23.382;2023-11-21T00:55:03;150329.31;;;4.91;100.00
10006;BME280;5042;42.626;23.382;2023-11-21T00:57:30;150321.56;;;4.88;100.00
10006;BME280;5042;42.626;23.382;2023-11-21T00:59:57;150319.00;;;4.87;100.00
10006;BME280;5042;42.626;23.382;2023-11-21T01:02:24;150342.25;;;4.96;100.00
10006;BME280;5042;42.626;23.382;2023-11-21T01:04:51;150321.56;;;4.88;100.00
10006;BME280;5042;42.626;23.382;2023-11-21T01:07:19;150297.06;;;4.78;100.00
10006;BME280;5042;42.626;23.382;2023-11-21T01:09:46;150313.84;;;4.85;100.00
10006;BME280;5042;42.626;23.382;2023-11-21T01:12:14;150308.66;;;4.83;100.00
10006;BME280;5042;42.626;23.382;2023-11-21T01:14:42;150311.22;;;4.84;100.00
10006;BME280;5042;42.626;23.382;2023-11-21T01:17:10;150295.78;;;4.78;100.00
10006;BME280;5042;42.626;23.382;2023-11-21T01:19:37;150308.66;;;4.83;100.00
10006;BME280;5042;42.626;23.382;2023-11-21T01:22:04;150306.13;;;4.82;100.00
10006;BME280;5042;42.626;23.382;2023-11-21T01:24:32;150326.75;;;4.90;100.00
10006;BME280;5042;42.626;23.382;2023-11-21T01:26:59;150329.31;;;4.91;100.00
10006;BME280;5042;42.626;23.382;2023-11-21T01:29:25;150353.88;;;5.01;100.00
10006;BME280;5042;42.626;23.382;2023-11-21T01:31:53;150355.16;;;5.01;100.00
10006;BME280;5042;42.626;23.382;2023-11-21T01:34:20;150347.38;;;4.98;100.00
10006;BME280;5042;42.626;23.382;2023-11-21T01:36:47;150350.00;;;4.99;100.00
10006;BME280;5042;42.626;23.382;2023-11-21T01:39:14;150350.00;;;4.99;100.00
10006;BME280;5042;42.626;23.382;2023-11-21T01:41:43;150350.00;;;4.99;100.00
10006;BME280;5042;42.626;23.382;2023-11-21T01:44:10;150319.00;;;4.87;100.00
10006;BME280;5042;42.626;23.382;2023-11-21T01:46:38;150340.94;;;4.96;100.00
10006;BME280;5042;42.626;23.382;2023-11-21T01:49:05;150360.34;;;5.03;100.00
10006;BME280;5042;42.626;23.382;2023-11-21T01:51:32;150375.81;;;5.09;100.00
10006;BME280;5042;42.626;23.382;2023-11-21T01:53:59;150387.44;;;5.14;100.00
10006;BME280;5042;42.626;23.382;2023-11-21T01:56:26;150362.91;;;5.04;100.00
10006;BME280;5042;42.626;23.382;2023-11-21T01:58:54;150355.16;;;5.01;100.00
10006;BME280;5042;42.626;23.382;2023-11-21T02:01:22;150319.00;;;4.87;100.00
10006;BME280;5042;42.626;23.382;2023-11-21T02:03:49;150334.47;;;4.93;100.00
10006;BME280;5042;42.626;23.382;2023-11-21T02:06:16;150317.72;;;4.86;100.00
10006;BME280;5042;42.626;23.382;2023-11-21T02:08:43;150297.06;;;4.78;100.00
10006;BME280;5042;42.626;23.382;2023-11-21T02:11:10;150302.22;;;4.80;100.00
10006;BME280;5042;42.626;23.382;2023-11-21T02:13:38;150313.84;;;4.85;100.00
10006;BME280;5042;42.626;23.382;2023-11-21T02:16:10;150312.56;;;4.84;100.00
10006;BME280;5042;42.626;23.382;2023-11-21T02:18:38;150235.09;;;4.54;100.00
10006;BME280;5042;42.626;23.382;2023-11-21T02:21:05;150317.72;;;4.86;100.00
10006;BME280;5042;42.626;23.382;2023-11-21T02:23:33;150352.56;;;5.00;100.00
10006;BME280;5042;42.626;23.382;2023-11-21T02:26:00;150339.66;;;4.95;100.00
10006;BME280;5042;42.626;23.382;2023-11-21T02:28:30;150337.09;;;4.94;100.00
10006;BME280;5042;42.626;23.382;2023-11-21T02:30:56;150346.09;;;4.98;100.00
10006;BME280;5042;42.626;23.382;2023-11-21T02:33:24;150322.84;;;4.88;100.00
10006;BME280;5042;42.626;23.382;2023-11-21T02:35:51;150342.25;;;4.96;100.00
10006;BME280;5042;42.626;23.382;2023-11-21T02:38:20;150328.03;;;4.91;100.00
10006;BME280;5042;42.626;23.382;2023-11-21T02:40:48;150319.00;;;4.87;100.00
10006;BME280;5042;42.626;23.382;2023-11-21T02:43:15;150347.38;;;4.98;100.00
10006;BME280;5042;42.626;23.382;2023-11-21T02:45:42;150335.81;;;4.94;100.00
10006;BME280;5042;42.626;23.382;2023-11-21T02:48:09;150369.34;;;5.07;100.00
10006;BME280;5042;42.626;23.382;2023-11-21T02:50:36;150361.63;;;5.04;100.00
10006;BME280;5042;42.626;23.382;2023-11-21T02:53:02;150346.09;;;4.98;100.00
10006;BME280;5042;42.626;23.382;2023-11-21T02:55:31;150275.09;;;4.70;100.00
10006;BME280;5042;42.626;23.382;2023-11-21T02:58:01;150186.06;;;4.34;100.00
10006;BME280;5042;42.626;23.382;2023-11-21T03:00:29;150238.94;;;4.55;100.00
10006;BME280;5042;42.626;23.382;2023-11-21T03:02:56;150246.72;;;4.58;100.00
10006;BME280;5042;42.626;23.382;2023-11-21T03:05:23;150250.56;;;4.60;100.00
10006;BME280;5042;42.626;23.382;2023-11-21T03:07:49;150245.41;;;4.58;100.00
10006;BME280;5042;42.626;23.382;2023-11-21T03:10:16;150210.59;;;4.44;100.00
10006;BME280;5042;42.626;23.382;2023-11-21T03:12:43;150191.19;;;4.36;100.00
10006;BME280;5042;42.626;23.382;2023-11-21T03:15:12;150182.19;;;4.33;100.00
10006;BME280;5042;42.626;23.382;2023-11-21T03:17:39;150161.50;;;4.24;100.00
10006;BME280;5042;42.626;23.382;2023-11-21T03:20:07;150151.22;;;4.20;100.00
10006;BME280;5042;42.626;23.382;2023-11-21T03:22:36;150167.94;;;4.27;100.00
10006;BME280;5042;42.626;23.382;2023-11-21T03:25:04;150175.72;;;4.30;100.00
10006;BME280;5042;42.626;23.382;2023-11-21T03:27:31;150204.13;;;4.41;100.00
10006;BME280;5042;42.626;23.382;2023-11-21T03:29:58;150223.50;;;4.49;100.00
10006;BME280;5042;42.626;23.382;2023-11-21T03:32:26;150218.31;;;4.47;100.00
10006;BME280;5042;42.626;23.382;2023-11-21T03:34:53;150215.72;;;4.46;100.00
10006;BME280;5042;42.626;23.382;2023-11-21T03:37:21;150120.25;;;4.08;100.00
10006;BME280;5042;42.626;23.382;2023-11-21T03:39:48;150229.94;;;4.52;100.00
10006;BME280;5042;42.626;23.382;2023-11-21T03:42:15;150222.22;;;4.49;100.00
10006;BME280;5042;42.626;23.382;2023-11-21T03:44:42;150197.63;;;4.39;100.00
10006;BME280;5042;42.626;23.382;2023-11-21T03:47:09;150175.72;;;4.30;100.00
10006;BME280;5042;42.626;23.382;2023-11-21T03:49:38;150165.41;;;4.26;100.00
10006;BME280;5042;42.626;23.382;2023-11-21T03:52:05;150120.25;;;4.08;100.00
10006;BME280;5042;42.626;23.382;2023-11-21T03:54:33;150071.19;;;3.89;100.00
10006;BME280;5042;42.626;23.382;2023-11-21T03:57:01;150017.00;;;3.67;100.00
10006;BME280;5042;42.626;23.382;2023-11-21T03:59:28;150004.13;;;3.62;100.00
10006;BME280;5042;42.626;23.382;2023-11-21T04:01:55;149906.13;;;3.23;100.00
10006;BME280;5042;42.626;23.382;2023-11-21T04:04:22;150058.31;;;3.83;100.00
10006;BME280;5042;42.626;23.382;2023-11-21T04:06:50;150089.25;;;3.96;100.00
10006;BME280;5042;42.626;23.382;2023-11-21T04:09:18;150090.59;;;3.96;100.00
10006;BME280;5042;42.626;23.382;2023-11-21T04:11:45;150112.47;;;4.05;100.00
10006;BME280;5042;42.626;23.382;2023-11-21T04:14:12;150081.53;;;3.93;100.00
10006;BME280;5042;42.626;23.382;2023-11-21T04:16:40;150078.97;;;3.92;100.00
10006;BME280;5042;42.626;23.382;2023-11-21T04:19:07;150081.53;;;3.93;100.00
10006;BME280;5042;42.626;23.382;2023-11-21T04:21:35;150057.03;;;3.83;100.00
10006;BME280;5042;42.626;23.382;2023-11-21T04:24:04;150086.69;;;3.95;100.00
10006;BME280;5042;42.626;23.382;2023-11-21T04:26:31;150094.41;;;3.98;100.00
10006;BME280;5042;42.626;23.382;2023-11-21T04:28:58;150108.63;;;4.03;100.00
10006;BME280;5042;42.626;23.382;2023-11-21T04:31:25;150116.38;;;4.07;100.00
10006;BME280;5042;42.626;23.382;2023-11-21T04:33:52;150124.09;;;4.10;100.00
10006;BME280;5042;42.626;23.382;2023-11-21T04:36:19;150116.38;;;4.07;100.00
10006;BME280;5042;42.626;23.382;2023-11-21T04:38:46;150125.38;;;4.10;100.00
10006;BME280;5042;42.626;23.382;2023-11-21T04:41:14;150143.44;;;4.17;100.00
10006;BME280;5042;42.626;23.382;2023-11-21T04:43:41;150122.81;;;4.09;100.00
10006;BME280;5042;42.626;23.382;2023-11-21T04:46:09;150148.59;;;4.19;100.00
10006;BME280;5042;42.626;23.382;2023-11-21T04:48:35;150106.03;;;4.02;100.00
10006;BME280;5042;42.626;23.382;2023-11-21T04:51:02;150106.03;;;4.02;100.00
10006;BME280;5042;42.626;23.382;2023-11-21T04:53:30;150111.19;;;4.04;100.00
10006;BME280;5042;42.626;23.382;2023-11-21T04:55:57;150126.72;;;4.11;100.00
10006;BME280;5042;42.626;23.382;2023-11-21T04:58:25;150148.59;;;4.19;100.00
10006;BME280;5042;42.626;23.382;2023-11-21T05:00:52;150158.94;;;4.23;100.00
10006;BME280;5042;42.626;23.382;2023-11-21T05:03:19;150153.78;;;4.21;100.00
10006;BME280;5042;42.626;23.382;2023-11-21T05:05:46;150149.88;;;4.20;100.00
10006;BME280;5042;42.626;23.382;2023-11-21T05:08:13;150143.44;;;4.17;100.00
10006;BME280;5042;42.626;23.382;2023-11-21T05:10:40;150143.44;;;4.17;100.00
10006;BME280;5042;42.626;23.382;2023-11-21T05:13:06;150153.78;;;4.21;100.00
10006;BME280;5042;42.626;23.382;2023-11-21T05:15:37;150177.00;;;4.31;100.00
10006;BME280;5042;42.626;23.382;2023-11-21T05:18:04;150184.75;;;4.34;100.00
10006;BME280;5042;42.626;23.382;2023-11-21T05:20:31;150169.28;;;4.28;100.00
10006;BME280;5042;42.626;23.382;2023-11-21T05:22:58;150195.06;;;4.38;100.00
10006;BME280;5042;42.626;23.382;2023-11-21T05:25:25;150184.75;;;4.34;100.00
10006;BME280;5042;42.626;23.382;2023-11-21T05:27:52;150184.75;;;4.34;100.00
10006;BME280;5042;42.626;23.382;2023-11-21T05:30:20;150187.34;;;4.35;100.00
10006;BME280;5042;42.626;23.382;2023-11-21T05:32:48;150209.25;;;4.43;100.00
10006;BME280;5042;42.626;23.382;2023-11-21T05:35:16;150226.03;;;4.50;100.00
10006;BME280;5042;42.626;23.382;2023-11-21T05:37:43;150231.22;;;4.52;100.00
10006;BME280;5042;42.626;23.382;2023-11-21T05:40:11;150189.91;;;4.36;100.00
10006;BME280;5042;42.626;23.382;2023-11-21T05:42:39;150140.88;;;4.16;100.00
10006;BME280;5042;42.626;23.382;2023-11-21T05:45:07;150104.75;;;4.02;100.00
10006;BME280;5042;42.626;23.382;2023-11-21T05:47:37;150166.66;;;4.27;100.00
10006;BME280;5042;42.626;23.382;2023-11-21T05:50:07;150187.34;;;4.35;100.00
10006;BME280;5042;42.626;23.382;2023-11-21T05:52:37;150170.56;;;4.28;100.00
10006;BME280;5042;42.626;23.382;2023-11-21T05:55:05;150178.28;;;4.31;100.00
10006;BME280;5042;42.626;23.382;2023-11-21T05:57:33;150207.97;;;4.43;100.00
10006;BME280;5042;42.626;23.382;2023-11-21T06:00:02;150207.97;;;4.43;100.00
10006;BME280;5042;42.626;23.382;2023-11-21T06:02:37;150183.47;;;4.33;100.00
10006;BME280;5042;42.626;23.382;2023-11-21T06:05:05;150196.34;;;4.38;100.00
10006;BME280;5042;42.626;23.382;2023-11-21T06:07:33;150184.75;;;4.34;100.00
10006;BME280;5042;42.626;23.382;2023-11-21T06:10:01;150188.63;;;4.35;100.00
10006;BME280;5042;42.626;23.382;2023-11-21T06:12:28;150165.41;;;4.26;100.00
10006;BME280;5042;42.626;23.382;2023-11-21T06:14:56;150174.44;;;4.30;100.00
10006;BME280;5042;42.626;23.382;2023-11-21T06:17:23;150244.13;;;4.57;100.00
10006;BME280;5042;42.626;23.382;2023-11-21T06:19:50;150259.63;;;4.63;100.00
10006;BME280;5042;42.626;23.382;2023-11-21T06:22:19;150245.41;;;4.58;100.00
10006;BME280;5042;42.626;23.382;2023-11-21T06:24:46;150236.38;;;4.54;100.00
10006;BME280;5042;42.626;23.382;2023-11-21T06:27:13;150210.59;;;4.44;100.00
10006;BME280;5042;42.626;23.382;2023-11-21T06:29:41;150231.22;;;4.52;100.00
10006;BME280;5042;42.626;23.382;2023-11-21T06:32:08;150263.47;;;4.65;100.00
10006;BME280;5042;42.626;23.382;2023-11-21T06:34:35;150267.34;;;4.66;100.00
10006;BME280;5042;42.626;23.382;2023-11-21T06:37:02;150311.22;;;4.84;100.00
10006;BME280;5042;42.626;23.382;2023-11-21T06:39:30;150258.34;;;4.63;100.00
10006;BME280;5042;42.626;23.382;2023-11-21T06:41:57;150264.78;;;4.65;100.00
10006;BME280;5042;42.626;23.382;2023-11-21T06:44:25;150219.59;;;4.47;100.00
10006;BME280;5042;42.626;23.382;2023-11-21T06:46:52;150184.75;;;4.34;100.00
10006;BME280;5042;42.626;23.382;2023-11-21T06:49:19;150282.88;;;4.73;100.00
10006;BME280;5042;42.626;23.382;2023-11-21T06:51:46;150281.53;;;4.72;100.00
10006;BME280;5042;42.626;23.382;2023-11-21T06:54:13;150271.25;;;4.68;100.00
10006;BME280;5042;42.626;23.382;2023-11-21T06:56:41;150307.38;;;4.82;100.00
10006;BME280;5042;42.626;23.382;2023-11-21T06:59:08;150339.66;;;4.95;100.00
10006;BME280;5042;42.626;23.382;2023-11-21T07:01:36;150347.38;;;4.98;100.00
10006;BME280;5042;42.626;23.382;2023-11-21T07:04:04;150417.13;;;5.26;100.00
10006;BME280;5042;42.626;23.382;2023-11-21T07:06:32;150414.56;;;5.25;100.00
10006;BME280;5042;42.626;23.382;2023-11-21T07:08:59;150419.75;;;5.27;100.00
10006;BME280;5042;42.626;23.382;2023-11-21T07:11:26;150452.03;;;5.40;100.00
10006;BME280;5042;42.626;23.382;2023-11-21T07:13:55;150468.81;;;5.46;100.00
10006;BME280;5042;42.626;23.382;2023-11-21T07:16:21;150492.09;;;5.56;100.00
10006;BME280;5042;42.626;23.382;2023-11-21T07:18:49;150507.56;;;5.62;100.00
10006;BME280;5042;42.626;23.382;2023-11-21T07:21:16;150499.81;;;5.59;100.00
10006;BME280;5042;42.626;23.382;2023-11-21T07:23:43;150577.34;;;5.89;100.00
10006;BME280;5042;42.626;23.382;2023-11-21T07:26:09;150567.00;;;5.85;100.00
10006;BME280;5042;42.626;23.382;2023-11-21T07:28:36;150560.53;;;5.83;100.00
10006;BME280;5042;42.626;23.382;2023-11-21T07:31:05;150579.91;;;5.90;100.00
10006;BME280;5042;42.626;23.382;2023-11-21T07:33:32;150556.63;;;5.81;100.00
10006;BME280;5042;42.626;23.382;2023-11-21T07:35:58;150547.63;;;5.78;100.00
10006;BME280;5042;42.626;23.382;2023-11-21T07:38:26;150543.72;;;5.76;100.00
10006;BME280;5042;42.626;23.382;2023-11-21T07:40:53;150589.03;;;5.94;100.00
10006;BME280;5042;42.626;23.382;2023-11-21T07:43:20;150616.13;;;6.05;100.00
10006;BME280;5042;42.626;23.382;2023-11-21T07:45:47;150609.69;;;6.02;100.00
10006;BME280;5042;42.626;23.382;2023-11-21T07:48:15;150625.22;;;6.08;100.00
10006;BME280;5042;42.626;23.382;2023-11-21T07:50:42;150665.28;;;6.24;100.00
10006;BME280;5042;42.626;23.382;2023-11-21T07:53:09;150689.84;;;6.34;100.00
10006;BME280;5042;42.626;23.382;2023-11-21T07:55:36;150736.34;;;6.52;100.00
10006;BME280;5042;42.626;23.382;2023-11-21T07:58:03;150763.50;;;6.63;100.00
10006;BME280;5042;42.626;23.382;2023-11-21T08:00:30;150780.34;;;6.70;100.00
10006;BME280;5042;42.626;23.382;2023-11-21T08:02:56;150797.16;;;6.76;100.00
10006;BME280;5042;42.626;23.382;2023-11-21T08:05:25;150806.19;;;6.80;100.00
10006;BME280;5042;42.626;23.382;2023-11-21T08:07:51;150788.09;;;6.73;100.00
10006;BME280;5042;42.626;23.382;2023-11-21T08:10:18;150789.38;;;6.73;100.00
10006;BME280;5042;42.626;23.382;2023-11-21T08:12:46;150781.63;;;6.70;100.00
10006;BME280;5042;42.626;23.382;2023-11-21T08:15:14;150830.75;;;6.90;100.00
10006;BME280;5042;42.626;23.382;2023-11-21T08:17:40;150870.84;;;7.06;100.00
10006;BME280;5042;42.626;23.382;2023-11-21T08:20:08;150878.59;;;7.09;100.00
10006;BME280;5042;42.626;23.382;2023-11-21T08:22:38;150912.25;;;7.22;100.00
10006;BME280;5042;42.626;23.382;2023-11-21T08:25:07;150978.22;;;7.48;100.00
10006;BME280;5042;42.626;23.382;2023-11-21T08:27:34;150982.09;;;7.50;100.00
10006;BME280;5042;42.626;23.382;2023-11-21T08:30:01;151042.94;;;7.74;100.00
10006;BME280;5042;42.626;23.382;2023-11-21T08:32:28;151083.03;;;7.90;100.00
10006;BME280;5042;42.626;23.382;2023-11-21T08:34:56;151048.06;;;7.76;100.00
10006;BME280;5042;42.626;23.382;2023-11-21T08:37:22;151093.38;;;7.94;100.00
10006;BME280;5042;42.626;23.382;2023-11-21T08:39:50;151071.38;;;7.85;100.00
10006;BME280;5042;42.626;23.382;2023-11-21T08:42:18;151077.84;;;7.88;100.00
10006;BME280;5042;42.626;23.382;2023-11-21T08:44:45;151062.34;;;7.81;100.00
10006;BME280;5042;42.626;23.382;2023-11-21T08:47:12;150962.69;;;7.42;100.00
10006;BME280;5042;42.626;23.382;2023-11-21T08:49:39;151068.81;;;7.84;100.00
10006;BME280;5042;42.626;23.382;2023-11-21T08:52:06;151084.34;;;7.90;100.00
10006;BME280;5042;42.626;23.382;2023-11-21T08:54:33;151090.81;;;7.93;100.00
10006;BME280;5042;42.626;23.382;2023-11-21T08:57:02;151115.41;;;8.02;100.00
10006;BME280;5042;42.626;23.382;2023-11-21T08:59:29;151123.16;;;8.05;100.00
10006;BME280;5042;42.626;23.382;2023-11-21T09:01:56;151098.56;;;7.96;100.00
10006;BME280;5042;42.626;23.382;2023-11-21T09:04:23;151107.63;;;7.99;100.00
10006;BME280;5042;42.626;23.382;2023-11-21T09:06:49;151112.78;;;8.01;100.00
10006;BME280;5042;42.626;23.382;2023-11-21T09:09:16;151105.03;;;7.98;100.00
10006;BME280;5042;42.626;23.382;2023-11-21T09:11:45;151086.91;;;7.91;100.00
10006;BME280;5042;42.626;23.382;2023-11-21T09:14:15;151134.81;;;8.10;100.00
10006;BME280;5042;42.626;23.382;2023-11-21T09:16:43;151095.97;;;7.95;100.00
10006;BME280;5042;42.626;23.382;2023-11-21T09:19:09;151014.47;;;7.62;100.00
10006;BME280;5042;42.626;23.382;2023-11-21T09:21:37;150970.47;;;7.45;100.00
10006;BME280;5042;42.626;23.382;2023-11-21T09:24:05;150970.47;;;7.45;100.00
10006;BME280;5042;42.626;23.382;2023-11-21T09:26:31;150944.56;;;7.35;100.00
10006;BME280;5042;42.626;23.382;2023-11-21T09:28:58;150903.19;;;7.18;100.00
10006;BME280;5042;42.626;23.382;2023-11-21T09:31:26;150976.94;;;7.48;100.00
10006;BME280;5042;42.626;23.382;2023-11-21T09:33:53;151040.31;;;7.73;100.00
10006;BME280;5042;42.626;23.382;2023-11-21T09:36:20;151068.81;;;7.84;100.00
10006;BME280;5042;42.626;23.382;2023-11-21T09:38:52;151061.06;;;7.81;100.00
10006;BME280;5042;42.626;23.382;2023-11-21T09:41:25;151017.03;;;7.63;100.00
10006;BME280;5042;42.626;23.382;2023-11-21T09:44:02;151044.22;;;7.74;100.00
10006;BME280;5042;42.626;23.382;2023-11-21T09:46:37;151004.09;;;7.58;100.00
10006;BME280;5042;42.626;23.382;2023-11-21T09:49:09;151058.44;;;7.80;100.00
10006;BME280;5042;42.626;23.382;2023-11-21T09:51:39;151035.13;;;7.71;100.00
10006;BME280;5042;42.626;23.382;2023-11-21T09:54:08;151062.34;;;7.81;100.00
10006;BME280;5042;42.626;23.382;2023-11-21T09:56:37;151121.88;;;8.05;100.00
10006;BME280;5042;42.626;23.382;2023-11-21T09:59:05;151165.88;;;8.22;100.00
10006;BME280;5042;42.626;23.382;2023-11-21T10:01:38;151195.66;;;8.34;100.00
10006;BME280;5042;42.626;23.382;2023-11-21T10:04:06;151248.78;;;8.55;100.00
10006;BME280;5042;42.626;23.382;2023-11-21T10:06:38;151208.59;;;8.39;100.00
10006;BME280;5042;42.626;23.382;2023-11-21T10:09:06;151327.78;;;8.86;100.00
10006;BME280;5042;42.626;23.382;2023-11-21T10:11:39;151355.00;;;8.97;100.00
10006;BME280;5042;42.626;23.382;2023-11-21T10:14:08;151343.34;;;8.93;100.00
10006;BME280;5042;42.626;23.382;2023-11-21T10:16:40;151352.41;;;8.96;100.00
10006;BME280;5042;42.626;23.382;2023-11-21T10:19:10;151384.81;;;9.09;100.00
10006;BME280;5042;42.626;23.382;2023-11-21T10:21:41;151415.88;;;9.21;100.00
10006;BME280;5042;42.626;23.382;2023-11-21T10:24:08;151436.59;;;9.29;100.00
10006;BME280;5042;42.626;23.382;2023-11-21T10:26:36;151413.28;;;9.20;100.00
10006;BME280;5042;42.626;23.382;2023-11-21T10:29:03;151408.09;;;9.18;100.00
10006;BME280;5042;42.626;23.382;2023-11-21T10:31:30;151414.59;;;9.21;100.00
10006;BME280;5042;42.626;23.382;2023-11-21T10:34:13;151459.94;;;9.39;100.00
10006;BME280;5042;42.626;23.382;2023-11-21T10:36:40;151474.16;;;9.44;100.00
10006;BME280;5042;42.626;23.382;2023-11-21T10:39:07;151529.91;;;9.66;100.00
10006;BME280;5042;42.626;23.382;2023-11-21T10:41:35;151596.03;;;9.92;100.00
10006;BME280;5042;42.626;23.382;2023-11-21T10:44:02;151615.47;;;10.00;100.00
10006;BME280;5042;42.626;23.382;2023-11-21T10:46:32;151651.75;;;10.14;100.00
10006;BME280;5042;42.626;23.382;2023-11-21T10:49:00;151666.00;;;10.20;100.00
10006;BME280;5042;42.626;23.382;2023-11-21T10:51:28;151699.78;;;10.33;100.00
10006;BME280;5042;42.626;23.382;2023-11-21T10:53:55;151716.66;;;10.40;100.00
10006;BME280;5042;42.626;23.382;2023-11-21T10:56:23;151693.31;;;10.31;100.00
10006;BME280;5042;42.626;23.382;2023-11-21T10:58:50;151704.97;;;10.35;100.00
10006;BME280;5042;42.626;23.382;2023-11-21T11:01:18;151740.00;;;10.49;100.00
10006;BME280;5042;42.626;23.382;2023-11-21T11:03:47;151703.69;;;10.35;100.00
10006;BME280;5042;42.626;23.382;2023-11-21T11:06:14;151688.09;;;10.29;100.00
10006;BME280;5042;42.626;23.382;2023-11-21T11:08:42;151681.56;;;10.26;100.00
10006;BME280;5042;42.626;23.382;2023-11-21T11:11:11;151711.44;;;10.38;100.00
10006;BME280;5042;42.626;23.382;2023-11-21T11:13:43;151721.84;;;10.42;100.00
10006;BME280;5042;42.626;23.382;2023-11-21T11:16:11;151745.19;;;10.51;100.00
10006;BME280;5042;42.626;23.382;2023-11-21T11:18:42;151725.69;;;10.44;100.00
10006;BME280;5042;42.626;23.382;2023-11-21T11:21:26;151719.22;;;10.41;100.00
10006;BME280;5042;42.626;23.382;2023-11-21T11:24:13;151695.88;;;10.32;100.00
10006;BME280;5042;42.626;23.382;2023-11-21T11:26:48;151646.56;;;10.12;100.00
10006;BME280;5042;42.626;23.382;2023-11-21T11:29:24;151677.66;;;10.25;100.00
10006;BME280;5042;42.626;23.382;2023-11-21T11:32:04;151714.03;;;10.39;100.00
10006;BME280;5042;42.626;23.382;2023-11-21T11:34:38;151708.88;;;10.37;100.00
10006;BME280;5042;42.626;23.382;2023-11-21T11:37:08;151729.59;;;10.45;100.00
10006;BME280;5042;42.626;23.382;2023-11-21T11:39:39;151703.69;;;10.35;100.00
10006;BME280;5042;42.626;23.382;2023-11-21T11:42:08;151706.25;;;10.36;100.00
10006;BME280;5042;42.626;23.382;2023-11-21T11:44:51;151680.28;;;10.26;100.00
10006;BME280;5042;42.626;23.382;2023-11-21T11:47:22;151641.38;;;10.10;100.00
10006;BME280;5042;42.626;23.382;2023-11-21T11:49:58;151655.66;;;10.16;100.00
10006;BME280;5042;42.626;23.382;2023-11-21T11:52:36;151703.69;;;10.35;100.00
10006;BME280;5042;42.626;23.382;2023-11-21T11:55:06;151730.88;;;10.46;100.00
10006;BME280;5042;42.626;23.382;2023-11-21T11:57:35;151776.31;;;10.64;100.00
10006;BME280;5042;42.626;23.382;2023-11-21T12:00:12;151798.31;;;10.72;100.00
10006;BME280;5042;42.626;23.382;2023-11-21T12:02:45;151812.63;;;10.78;100.00
10006;BME280;5042;42.626;23.382;2023-11-21T12:05:14;151830.78;;;10.85;100.00
10006;BME280;5042;42.626;23.382;2023-11-21T12:07:45;151807.44;;;10.76;100.00
10006;BME280;5042;42.626;23.382;2023-11-21T12:10:15;151824.28;;;10.82;100.00
10006;BME280;5042;42.626;23.382;2023-11-21T12:12:44;151830.78;;;10.85;100.00
10006;BME280;5042;42.626;23.382;2023-11-21T12:15:12;151850.22;;;10.93;100.00
10006;BME280;5042;42.626;23.382;2023-11-21T12:17:39;151784.06;;;10.67;100.00
10006;BME280;5042;42.626;23.382;2023-11-21T12:20:07;151846.31;;;10.91;100.00
10006;BME280;5042;42.626;23.382;2023-11-21T12:22:42;151804.84;;;10.75;100.00
10006;BME280;5042;42.626;23.382;2023-11-21T12:25:09;151823.00;;;10.82;100.00
10006;BME280;5042;42.626;23.382;2023-11-21T12:27:42;151794.47;;;10.71;100.00
10006;BME280;5042;42.626;23.382;2023-11-21T12:30:11;151799.66;;;10.73;100.00
10006;BME280;5042;42.626;23.382;2023-11-21T12:32:41;151802.22;;;10.74;100.00
10006;BME280;5042;42.626;23.382;2023-11-21T12:35:09;151816.47;;;10.79;100.00
10006;BME280;5042;42.626;23.382;2023-11-21T12:37:37;151807.44;;;10.76;100.00
10006;BME280;5042;42.626;23.382;2023-11-21T12:40:05;151787.97;;;10.68;100.00
10006;BME280;5042;42.626;23.382;2023-11-21T12:42:33;151775.00;;;10.63;100.00
10006;BME280;5042;42.626;23.382;2023-11-21T12:45:18;151785.34;;;10.67;100.00
10006;BME280;5042;42.626;23.382;2023-11-21T12:47:46;151798.31;;;10.72;100.00
10006;BME280;5042;42.626;23.382;2023-11-21T12:50:13;151707.53;;;10.36;100.00
10006;BME280;5042;42.626;23.382;2023-11-21T12:52:42;151646.56;;;10.12;100.00